sensor_id;sensor_type;location;lat;lon;timestamp;pressure;altitude;pressure_sealevel;temperature;humidity
76551;BME280;65393;53.160;18.170;2022-12-29T00:01:58;100757.29;;;6.15;81.81
76551;BME280;65393;53.160;18.170;2022-12-29T00:04:24;100754.31;;;6.12;81.37
76551;BME280;65393;53.160;18.170;2022-12-29T00:06:52;100756.27;;;6.11;81.43
76551;BME280;65393;53.160;18.170;2022-12-29T00:09:19;100751.95;;;6.09;81.81
76551;BME280;65393;53.160;18.170;2022-12-29T00:11:46;100748.48;;;6.04;82.22
76551;BME280;65393;53.160;18.170;2022-12-29T00:14:13;100742.54;;;6.02;82.77
76551;BME280;65393;53.160;18.170;2022-12-29T00:16:58;100738.87;;;6.01;82.30
76551;BME280;65393;53.160;18.170;2022-12-29T00:19:25;100730.45;;;6.00;82.67
76551;BME280;65393;53.160;18.170;2022-12-29T00:22:12;100729.76;;;5.99;82.62
76551;BME280;65393;53.160;18.170;2022-12-29T00:24:58;100729.81;;;5.96;83.20
76551;BME280;65393;53.160;18.170;2022-12-29T00:27:29;100728.59;;;5.95;83.24
76551;BME280;65393;53.160;18.170;2022-12-29T00:30:21;100729.48;;;5.95;83.15
76551;BME280;65393;53.160;18.170;2022-12-29T00:33:17;100726.11;;;5.96;83.27
76551;BME280;65393;53.160;18.170;2022-12-29T00:36:40;100722.61;;;5.95;83.14
76551;BME280;65393;53.160;18.170;2022-12-29T00:39:12;100716.63;;;5.94;83.01
76551;BME280;65393;53.160;18.170;2022-12-29T00:42:04;100717.52;;;5.93;83.45
76551;BME280;65393;53.160;18.170;2022-12-29T00:44:50;100721.56;;;5.94;83.89
76551;BME280;65393;53.160;18.170;2022-12-29T00:47:17;100722.98;;;5.93;83.81
76551;BME280;65393;53.160;18.170;2022-12-29T00:49:44;100720.02;;;5.91;83.74
76551;BME280;65393;53.160;18.170;2022-12-29T00:52:11;100724.45;;;5.90;83.85
76551;BME280;65393;53.160;18.170;2022-12-29T00:54:40;100720.95;;;5.89;83.73
76551;BME280;65393;53.160;18.170;2022-12-29T00:57:09;100717.88;;;5.93;83.94
76551;BME280;65393;53.160;18.170;2022-12-29T00:59:37;100718.38;;;5.95;83.79
76551;BME280;65393;53.160;18.170;2022-12-29T01:02:05;100712.91;;;5.95;84.51
76551;BME280;65393;53.160;18.170;2022-12-29T01:04:32;100719.27;;;5.94;84.33
76551;BME280;65393;53.160;18.170;2022-12-29T01:06:59;100718.95;;;5.93;84.28
76551;BME280;65393;53.160;18.170;2022-12-29T01:09:26;100722.82;;;5.92;84.38
76551;BME280;65393;53.160;18.170;2022-12-29T01:12:28;100730.21;;;5.92;84.26
76551;BME280;65393;53.160;18.170;2022-12-29T01:15:10;100730.41;;;5.91;84.36
76551;BME280;65393;53.160;18.170;2022-12-29T01:17:37;100728.99;;;5.91;84.58
76551;BME280;65393;53.160;18.170;2022-12-29T01:20:04;100727.41;;;5.91;84.29
76551;BME280;65393;53.160;18.170;2022-12-29T01:22:31;100730.58;;;5.91;84.58
76551;BME280;65393;53.160;18.170;2022-12-29T01:24:58;100731.09;;;5.93;84.16
76551;BME280;65393;53.160;18.170;2022-12-29T01:27:24;100725.27;;;5.95;84.46
76551;BME280;65393;53.160;18.170;2022-12-29T01:29:51;100721.17;;;5.97;84.10
76551;BME280;65393;53.160;18.170;2022-12-29T01:32:18;100721.84;;;5.98;84.03
76551;BME280;65393;53.160;18.170;2022-12-29T01:34:45;100719.19;;;5.99;83.89
76551;BME280;65393;53.160;18.170;2022-12-29T01:37:11;100718.27;;;6.00;83.90
76551;BME280;65393;53.160;18.170;2022-12-29T01:39:38;100717.95;;;6.00;83.75
76551;BME280;65393;53.160;18.170;2022-12-29T01:42:05;100715.66;;;5.99;84.03
76551;BME280;65393;53.160;18.170;2022-12-29T01:44:53;100712.16;;;5.98;83.84
76551;BME280;65393;53.160;18.170;2022-12-29T01:50:09;100705.55;;;6.01;83.81
76551;BME280;65393;53.160;18.170;2022-12-29T01:52:42;100694.80;;;6.02;83.60
76551;BME280;65393;53.160;18.170;2022-12-29T01:55:11;100691.84;;;6.01;83.66
76551;BME280;65393;53.160;18.170;2022-12-29T01:57:40;100685.02;;;5.99;83.49
76551;BME280;65393;53.160;18.170;2022-12-29T02:00:12;100683.95;;;5.99;83.65
76551;BME280;65393;53.160;18.170;2022-12-29T02:02:44;100682.37;;;6.00;83.53
76551;BME280;65393;53.160;18.170;2022-12-29T02:05:33;100678.25;;;6.01;83.43
76551;BME280;65393;53.160;18.170;2022-12-29T02:08:03;100671.42;;;6.00;83.56
76551;BME280;65393;53.160;18.170;2022-12-29T02:10:32;100661.92;;;6.00;83.30
76551;BME280;65393;53.160;18.170;2022-12-29T02:13:00;100664.39;;;6.00;83.70
76551;BME280;65393;53.160;18.170;2022-12-29T02:21:01;100645.80;;;6.03;83.81
76551;BME280;65393;53.160;18.170;2022-12-29T02:26:27;100640.69;;;6.03;83.62
76551;BME280;65393;53.160;18.170;2022-12-29T02:32:07;100630.96;;;6.05;83.77
76551;BME280;65393;53.160;18.170;2022-12-29T02:51:00;100599.17;;;6.09;83.60
76551;BME280;65393;53.160;18.170;2022-12-29T02:53:30;100600.63;;;6.07;83.81
76551;BME280;65393;53.160;18.170;2022-12-29T02:56:18;100598.39;;;6.05;83.79
76551;BME280;65393;53.160;18.170;2022-12-29T02:58:46;100592.57;;;6.04;83.57
76551;BME280;65393;53.160;18.170;2022-12-29T03:01:23;100592.58;;;6.04;83.77
76551;BME280;65393;53.160;18.170;2022-12-29T03:04:26;100587.64;;;6.05;83.88
76551;BME280;65393;53.160;18.170;2022-12-29T03:12:31;100589.36;;;5.99;83.81
76551;BME280;65393;53.160;18.170;2022-12-29T03:15:40;100588.30;;;5.99;83.96
76551;BME280;65393;53.160;18.170;2022-12-29T03:21:26;100589.77;;;5.95;84.01
76551;BME280;65393;53.160;18.170;2022-12-29T03:24:16;100590.46;;;5.96;83.67
76551;BME280;65393;53.160;18.170;2022-12-29T03:26:45;100587.65;;;5.96;83.81
76551;BME280;65393;53.160;18.170;2022-12-29T03:29:15;100587.30;;;5.96;83.62
76551;BME280;65393;53.160;18.170;2022-12-29T03:31:44;100578.87;;;5.95;83.61
76551;BME280;65393;53.160;18.170;2022-12-29T03:34:13;100585.42;;;5.93;83.62
76551;BME280;65393;53.160;18.170;2022-12-29T03:36:53;100580.82;;;5.94;83.47
76551;BME280;65393;53.160;18.170;2022-12-29T03:39:23;100581.30;;;5.96;83.26
76551;BME280;65393;53.160;18.170;2022-12-29T03:41:55;100574.06;;;5.97;83.45
76551;BME280;65393;53.160;18.170;2022-12-29T03:44:39;100569.48;;;5.97;83.30
76551;BME280;65393;53.160;18.170;2022-12-29T03:47:07;100575.64;;;5.97;83.22
76551;BME280;65393;53.160;18.170;2022-12-29T03:49:35;100575.10;;;5.98;83.15
76551;BME280;65393;53.160;18.170;2022-12-29T03:52:04;100578.94;;;6.00;83.30
76551;BME280;65393;53.160;18.170;2022-12-29T03:54:32;100573.43;;;6.01;83.19
76551;BME280;65393;53.160;18.170;2022-12-29T03:56:59;100571.48;;;6.02;83.35
76551;BME280;65393;53.160;18.170;2022-12-29T03:59:43;100570.25;;;6.02;83.43
76551;BME280;65393;53.160;18.170;2022-12-29T04:02:11;100567.23;;;6.02;83.41
76551;BME280;65393;53.160;18.170;2022-12-29T04:04:38;100561.79;;;6.02;83.37
76551;BME280;65393;53.160;18.170;2022-12-29T04:07:04;100560.59;;;6.01;83.53
76551;BME280;65393;53.160;18.170;2022-12-29T04:09:31;100556.03;;;6.00;83.43
76551;BME280;65393;53.160;18.170;2022-12-29T04:11:58;100559.41;;;6.00;83.64
76551;BME280;65393;53.160;18.170;2022-12-29T04:14:25;100553.71;;;6.01;83.59
76551;BME280;65393;53.160;18.170;2022-12-29T04:16:53;100550.52;;;6.01;83.56
76551;BME280;65393;53.160;18.170;2022-12-29T04:19:19;100547.71;;;6.01;83.57
76551;BME280;65393;53.160;18.170;2022-12-29T04:21:47;100547.75;;;6.00;83.45
76551;BME280;65393;53.160;18.170;2022-12-29T04:24:14;100545.83;;;6.00;83.47
76551;BME280;65393;53.160;18.170;2022-12-29T04:26:41;100544.78;;;6.00;83.51
76551;BME280;65393;53.160;18.170;2022-12-29T04:29:29;100543.02;;;5.99;83.48
76551;BME280;65393;53.160;18.170;2022-12-29T04:32:04;100540.39;;;5.99;83.69
76551;BME280;65393;53.160;18.170;2022-12-29T04:34:33;100542.34;;;5.98;83.65
76551;BME280;65393;53.160;18.170;2022-12-29T04:37:00;100539.52;;;5.98;83.63
76551;BME280;65393;53.160;18.170;2022-12-29T04:39:27;100538.80;;;5.99;83.47
76551;BME280;65393;53.160;18.170;2022-12-29T04:41:54;100536.48;;;6.00;83.70
76551;BME280;65393;53.160;18.170;2022-12-29T04:44:21;100534.69;;;6.01;83.74
76551;BME280;65393;53.160;18.170;2022-12-29T04:47:17;100531.31;;;6.02;83.47
76551;BME280;65393;53.160;18.170;2022-12-29T04:50:04;100530.42;;;6.02;83.60
76551;BME280;65393;53.160;18.170;2022-12-29T04:52:34;100531.45;;;6.04;83.67
76551;BME280;65393;53.160;18.170;2022-12-29T04:55:03;100530.35;;;6.05;83.63
76551;BME280;65393;53.160;18.170;2022-12-29T04:57:30;100526.82;;;6.06;83.67
76551;BME280;65393;53.160;18.170;2022-12-29T04:59:59;100528.24;;;6.06;83.60
76551;BME280;65393;53.160;18.170;2022-12-29T05:02:25;100522.96;;;6.05;83.41
76551;BME280;65393;53.160;18.170;2022-12-29T05:04:52;100521.55;;;6.06;83.62
76551;BME280;65393;53.160;18.170;2022-12-29T05:07:19;100518.34;;;6.07;83.40
76551;BME280;65393;53.160;18.170;2022-12-29T05:09:48;100528.02;;;6.08;83.36
76551;BME280;65393;53.160;18.170;2022-12-29T05:12:15;100523.61;;;6.08;83.48
76551;BME280;65393;53.160;18.170;2022-12-29T05:14:58;100513.42;;;6.07;83.47
76551;BME280;65393;53.160;18.170;2022-12-29T05:17:25;100527.00;;;6.06;83.56
76551;BME280;65393;53.160;18.170;2022-12-29T05:19:52;100521.70;;;6.07;83.50
76551;BME280;65393;53.160;18.170;2022-12-29T05:22:20;100530.32;;;6.08;83.38
76551;BME280;65393;53.160;18.170;2022-12-29T05:24:47;100525.89;;;6.09;83.54
76551;BME280;65393;53.160;18.170;2022-12-29T05:27:14;100522.92;;;6.07;83.53
76551;BME280;65393;53.160;18.170;2022-12-29T05:29:48;100515.89;;;6.07;83.44
76551;BME280;65393;53.160;18.170;2022-12-29T05:32:15;100502.80;;;6.09;83.49
76551;BME280;65393;53.160;18.170;2022-12-29T05:34:42;100503.06;;;6.12;83.26
76551;BME280;65393;53.160;18.170;2022-12-29T05:37:09;100498.27;;;6.14;83.28
76551;BME280;65393;53.160;18.170;2022-12-29T05:39:38;100495.45;;;6.13;83.29
76551;BME280;65393;53.160;18.170;2022-12-29T05:42:05;100492.45;;;6.14;83.33
76551;BME280;65393;53.160;18.170;2022-12-29T05:44:50;100485.90;;;6.15;83.22
76551;BME280;65393;53.160;18.170;2022-12-29T05:47:30;100483.23;;;6.17;83.22
76551;BME280;65393;53.160;18.170;2022-12-29T05:50:15;100472.96;;;6.19;82.97
76551;BME280;65393;53.160;18.170;2022-12-29T05:53:01;100475.04;;;6.20;83.17
76551;BME280;65393;53.160;18.170;2022-12-29T05:55:28;100472.56;;;6.20;83.16
76551;BME280;65393;53.160;18.170;2022-12-29T05:57:56;100464.79;;;6.21;83.24
76551;BME280;65393;53.160;18.170;2022-12-29T06:00:22;100460.66;;;6.24;83.09
76551;BME280;65393;53.160;18.170;2022-12-29T06:02:49;100453.36;;;6.27;82.94
76551;BME280;65393;53.160;18.170;2022-12-29T06:05:17;100451.75;;;6.29;83.01
76551;BME280;65393;53.160;18.170;2022-12-29T06:07:44;100451.15;;;6.31;82.80
76551;BME280;65393;53.160;18.170;2022-12-29T06:10:12;100457.29;;;6.32;82.98
76551;BME280;65393;53.160;18.170;2022-12-29T06:12:50;100453.23;;;6.32;82.97
76551;BME280;65393;53.160;18.170;2022-12-29T06:15:17;100460.45;;;6.32;82.77
76551;BME280;65393;53.160;18.170;2022-12-29T06:17:45;100462.67;;;6.35;82.85
76551;BME280;65393;53.160;18.170;2022-12-29T06:20:13;100470.92;;;6.37;82.47
76551;BME280;65393;53.160;18.170;2022-12-29T06:22:39;100479.02;;;6.38;82.58
76551;BME280;65393;53.160;18.170;2022-12-29T06:25:06;100481.66;;;6.38;82.54
76551;BME280;65393;53.160;18.170;2022-12-29T06:27:34;100473.17;;;6.39;82.56
76551;BME280;65393;53.160;18.170;2022-12-29T06:30:01;100472.39;;;6.42;82.68
76551;BME280;65393;53.160;18.170;2022-12-29T06:32:29;100461.08;;;6.42;82.41
76551;BME280;65393;53.160;18.170;2022-12-29T06:35:01;100457.50;;;6.45;82.40
76551;BME280;65393;53.160;18.170;2022-12-29T06:37:28;100451.24;;;6.48;82.60
76551;BME280;65393;53.160;18.170;2022-12-29T06:39:55;100449.62;;;6.50;82.30
76551;BME280;65393;53.160;18.170;2022-12-29T06:42:26;100452.05;;;6.51;82.36
76551;BME280;65393;53.160;18.170;2022-12-29T06:45:15;100455.77;;;6.51;82.39
76551;BME280;65393;53.160;18.170;2022-12-29T06:47:45;100458.92;;;6.51;82.14
76551;BME280;65393;53.160;18.170;2022-12-29T06:50:12;100463.27;;;6.53;82.32
76551;BME280;65393;53.160;18.170;2022-12-29T06:52:38;100468.29;;;6.57;82.07
76551;BME280;65393;53.160;18.170;2022-12-29T06:55:05;100469.30;;;6.59;81.94
76551;BME280;65393;53.160;18.170;2022-12-29T06:57:32;100470.15;;;6.61;81.85
76551;BME280;65393;53.160;18.170;2022-12-29T06:59:59;100470.44;;;6.62;81.82
76551;BME280;65393;53.160;18.170;2022-12-29T07:02:25;100472.16;;;6.64;81.42
76551;BME280;65393;53.160;18.170;2022-12-29T07:04:52;100476.28;;;6.69;81.24
76551;BME280;65393;53.160;18.170;2022-12-29T07:07:20;100471.91;;;6.74;81.33
76551;BME280;65393;53.160;18.170;2022-12-29T07:09:47;100470.55;;;6.79;80.62
76551;BME280;65393;53.160;18.170;2022-12-29T07:12:14;100470.62;;;6.83;80.72
76551;BME280;65393;53.160;18.170;2022-12-29T07:14:40;100467.50;;;6.87;80.54
76551;BME280;65393;53.160;18.170;2022-12-29T07:17:07;100469.48;;;6.92;79.76
76551;BME280;65393;53.160;18.170;2022-12-29T07:19:34;100474.98;;;6.97;79.84
76551;BME280;65393;53.160;18.170;2022-12-29T07:22:00;100484.05;;;7.01;79.41
76551;BME280;65393;53.160;18.170;2022-12-29T07:24:27;100480.73;;;7.06;79.80
76551;BME280;65393;53.160;18.170;2022-12-29T07:26:54;100476.45;;;7.09;78.99
76551;BME280;65393;53.160;18.170;2022-12-29T07:29:20;100468.44;;;7.11;78.99
76551;BME280;65393;53.160;18.170;2022-12-29T07:31:47;100466.90;;;7.15;79.33
76551;BME280;65393;53.160;18.170;2022-12-29T07:34:14;100475.85;;;7.17;78.67
76551;BME280;65393;53.160;18.170;2022-12-29T07:36:40;100480.52;;;7.21;78.27
76551;BME280;65393;53.160;18.170;2022-12-29T07:39:07;100483.41;;;7.23;78.04
76551;BME280;65393;53.160;18.170;2022-12-29T07:41:34;100483.69;;;7.27;77.92
76551;BME280;65393;53.160;18.170;2022-12-29T07:44:02;100477.21;;;7.31;78.17
76551;BME280;65393;53.160;18.170;2022-12-29T07:46:50;100473.73;;;7.35;78.03
76551;BME280;65393;53.160;18.170;2022-12-29T07:49:16;100471.96;;;7.35;77.96
76551;BME280;65393;53.160;18.170;2022-12-29T07:51:43;100469.30;;;7.35;78.03
76551;BME280;65393;53.160;18.170;2022-12-29T07:54:10;100461.89;;;7.35;77.37
76551;BME280;65393;53.160;18.170;2022-12-29T07:56:38;100463.13;;;7.36;77.21
76551;BME280;65393;53.160;18.170;2022-12-29T07:59:05;100454.46;;;7.36;77.16
76551;BME280;65393;53.160;18.170;2022-12-29T08:01:31;100456.61;;;7.35;77.29
76551;BME280;65393;53.160;18.170;2022-12-29T08:03:58;100448.20;;;7.33;77.64
76551;BME280;65393;53.160;18.170;2022-12-29T08:06:25;100440.70;;;7.30;76.96
76551;BME280;65393;53.160;18.170;2022-12-29T08:08:51;100438.73;;;7.32;77.37
76551;BME280;65393;53.160;18.170;2022-12-29T08:11:18;100442.13;;;7.35;77.64
76551;BME280;65393;53.160;18.170;2022-12-29T08:13:45;100446.99;;;7.38;77.69
76551;BME280;65393;53.160;18.170;2022-12-29T08:16:11;100455.54;;;7.42;77.64
76551;BME280;65393;53.160;18.170;2022-12-29T08:18:38;100464.73;;;7.47;77.43
76551;BME280;65393;53.160;18.170;2022-12-29T08:21:05;100460.39;;;7.52;77.48
76551;BME280;65393;53.160;18.170;2022-12-29T08:23:32;100452.33;;;7.55;75.99
76551;BME280;65393;53.160;18.170;2022-12-29T08:26:00;100454.63;;;7.61;76.69
76551;BME280;65393;53.160;18.170;2022-12-29T08:28:28;100453.27;;;7.65;76.68
76551;BME280;65393;53.160;18.170;2022-12-29T08:30:59;100454.38;;;7.69;76.23
76551;BME280;65393;53.160;18.170;2022-12-29T08:33:27;100454.47;;;7.72;76.46
76551;BME280;65393;53.160;18.170;2022-12-29T08:36:05;100444.13;;;7.75;75.45
76551;BME280;65393;53.160;18.170;2022-12-29T08:38:33;100450.92;;;7.78;75.81
76551;BME280;65393;53.160;18.170;2022-12-29T08:41:00;100455.98;;;7.80;75.84
76551;BME280;65393;53.160;18.170;2022-12-29T08:43:30;100473.88;;;7.84;74.79
76551;BME280;65393;53.160;18.170;2022-12-29T08:45:58;100471.20;;;7.90;75.64
76551;BME280;65393;53.160;18.170;2022-12-29T08:48:25;100471.80;;;7.94;75.53
76551;BME280;65393;53.160;18.170;2022-12-29T08:50:52;100469.05;;;7.96;75.66
76551;BME280;65393;53.160;18.170;2022-12-29T08:53:19;100471.83;;;7.98;75.29
76551;BME280;65393;53.160;18.170;2022-12-29T08:55:47;100479.33;;;8.01;74.81
76551;BME280;65393;53.160;18.170;2022-12-29T08:58:14;100477.08;;;8.05;74.69
76551;BME280;65393;53.160;18.170;2022-12-29T09:00:42;100472.40;;;8.08;74.55
76551;BME280;65393;53.160;18.170;2022-12-29T09:03:09;100460.45;;;8.12;74.46
76551;BME280;65393;53.160;18.170;2022-12-29T09:05:36;100468.92;;;8.17;74.72
76551;BME280;65393;53.160;18.170;2022-12-29T09:08:03;100464.27;;;8.20;74.50
76551;BME280;65393;53.160;18.170;2022-12-29T09:10:31;100460.23;;;8.24;74.77
76551;BME280;65393;53.160;18.170;2022-12-29T09:12:58;100457.80;;;8.28;74.71
76551;BME280;65393;53.160;18.170;2022-12-29T09:15:25;100454.00;;;8.31;75.20
76551;BME280;65393;53.160;18.170;2022-12-29T09:17:51;100453.65;;;8.32;74.96
76551;BME280;65393;53.160;18.170;2022-12-29T09:20:19;100453.61;;;8.33;74.32
76551;BME280;65393;53.160;18.170;2022-12-29T09:22:47;100450.79;;;8.33;73.86
76551;BME280;65393;53.160;18.170;2022-12-29T09:25:14;100450.73;;;8.34;73.97
76551;BME280;65393;53.160;18.170;2022-12-29T09:27:41;100453.29;;;8.37;74.35
76551;BME280;65393;53.160;18.170;2022-12-29T09:30:10;100455.55;;;8.38;73.96
76551;BME280;65393;53.160;18.170;2022-12-29T09:32:38;100450.21;;;8.39;74.05
76551;BME280;65393;53.160;18.170;2022-12-29T09:35:05;100446.17;;;8.38;74.03
76551;BME280;65393;53.160;18.170;2022-12-29T09:37:31;100444.77;;;8.38;73.67
76551;BME280;65393;53.160;18.170;2022-12-29T09:39:58;100445.34;;;8.36;74.00
76551;BME280;65393;53.160;18.170;2022-12-29T09:45:24;100451.52;;;8.37;74.13
76551;BME280;65393;53.160;18.170;2022-12-29T09:47:54;100449.90;;;8.38;74.44
76551;BME280;65393;53.160;18.170;2022-12-29T09:50:30;100445.83;;;8.38;73.82
76551;BME280;65393;53.160;18.170;2022-12-29T09:53:14;100438.02;;;8.39;73.48
76551;BME280;65393;53.160;18.170;2022-12-29T09:55:45;100442.20;;;8.41;73.62
76551;BME280;65393;53.160;18.170;2022-12-29T09:58:18;100432.06;;;8.43;73.61
76551;BME280;65393;53.160;18.170;2022-12-29T10:01:02;100430.52;;;8.45;73.71
76551;BME280;65393;53.160;18.170;2022-12-29T10:03:50;100431.84;;;8.48;74.03
76551;BME280;65393;53.160;18.170;2022-12-29T10:06:39;100431.31;;;8.48;73.64
76551;BME280;65393;53.160;18.170;2022-12-29T10:25:33;100427.52;;;8.61;72.85
76551;BME280;65393;53.160;18.170;2022-12-29T10:28:22;100425.05;;;8.61;72.34
76551;BME280;65393;53.160;18.170;2022-12-29T10:30:50;100421.39;;;8.65;72.74
76551;BME280;65393;53.160;18.170;2022-12-29T10:33:21;100424.80;;;8.68;72.68
76551;BME280;65393;53.160;18.170;2022-12-29T10:35:50;100421.23;;;8.69;72.15
76551;BME280;65393;53.160;18.170;2022-12-29T10:40:51;100427.27;;;8.74;72.54
76551;BME280;65393;53.160;18.170;2022-12-29T10:43:50;100418.23;;;8.74;72.40
76551;BME280;65393;53.160;18.170;2022-12-29T10:46:25;100414.36;;;8.73;72.72
76551;BME280;65393;53.160;18.170;2022-12-29T10:48:54;100409.98;;;8.76;72.64
76551;BME280;65393;53.160;18.170;2022-12-29T10:51:28;100404.95;;;8.79;72.30
76551;BME280;65393;53.160;18.170;2022-12-29T10:54:21;100408.39;;;8.81;72.55
76551;BME280;65393;53.160;18.170;2022-12-29T10:56:50;100408.35;;;8.83;72.45
76551;BME280;65393;53.160;18.170;2022-12-29T10:59:29;100406.02;;;8.84;72.43
76551;BME280;65393;53.160;18.170;2022-12-29T11:07:16;100397.80;;;8.91;72.25
76551;BME280;65393;53.160;18.170;2022-12-29T11:09:44;100394.92;;;8.92;72.18
76551;BME280;65393;53.160;18.170;2022-12-29T11:15:13;100387.77;;;8.95;71.96
76551;BME280;65393;53.160;18.170;2022-12-29T11:20:36;100389.69;;;8.95;72.21
76551;BME280;65393;53.160;18.170;2022-12-29T11:26:17;100372.23;;;8.98;71.90
76551;BME280;65393;53.160;18.170;2022-12-29T11:28:47;100365.05;;;9.01;71.73
76551;BME280;65393;53.160;18.170;2022-12-29T11:31:17;100363.02;;;9.03;71.55
76551;BME280;65393;53.160;18.170;2022-12-29T11:33:48;100358.15;;;9.05;71.44
76551;BME280;65393;53.160;18.170;2022-12-29T11:36:17;100362.15;;;9.07;71.55
76551;BME280;65393;53.160;18.170;2022-12-29T11:38:52;100363.50;;;9.08;71.46
76551;BME280;65393;53.160;18.170;2022-12-29T11:41:23;100358.20;;;9.13;71.57
76551;BME280;65393;53.160;18.170;2022-12-29T11:43:51;100355.42;;;9.21;71.45
76551;BME280;65393;53.160;18.170;2022-12-29T11:46:23;100353.98;;;9.31;71.21
76551;BME280;65393;53.160;18.170;2022-12-29T11:48:51;100352.98;;;9.38;71.29
76551;BME280;65393;53.160;18.170;2022-12-29T11:51:44;100350.08;;;9.40;70.77
76551;BME280;65393;53.160;18.170;2022-12-29T11:54:13;100341.45;;;9.38;71.40
76551;BME280;65393;53.160;18.170;2022-12-29T11:56:43;100336.16;;;9.38;71.17
76551;BME280;65393;53.160;18.170;2022-12-29T12:02:58;100333.96;;;9.36;70.98
76551;BME280;65393;53.160;18.170;2022-12-29T12:05:24;100333.84;;;9.34;70.75
76551;BME280;65393;53.160;18.170;2022-12-29T12:08:15;100333.52;;;9.33;70.89
76551;BME280;65393;53.160;18.170;2022-12-29T12:10:48;100334.28;;;9.32;70.72
76551;BME280;65393;53.160;18.170;2022-12-29T12:13:31;100334.88;;;9.35;70.46
76551;BME280;65393;53.160;18.170;2022-12-29T12:16:08;100327.13;;;9.38;70.55
76551;BME280;65393;53.160;18.170;2022-12-29T12:21:14;100318.48;;;9.42;70.52
76551;BME280;65393;53.160;18.170;2022-12-29T12:29:46;100328.00;;;9.43;70.56
76551;BME280;65393;53.160;18.170;2022-12-29T12:34:44;100331.54;;;9.43;70.32
76551;BME280;65393;53.160;18.170;2022-12-29T12:37:29;100331.02;;;9.43;70.50
76551;BME280;65393;53.160;18.170;2022-12-29T12:45:42;100340.42;;;9.47;70.26
76551;BME280;65393;53.160;18.170;2022-12-29T12:56:51;100322.72;;;9.55;70.75
76551;BME280;65393;53.160;18.170;2022-12-29T13:02:34;100319.28;;;9.61;70.36
76551;BME280;65393;53.160;18.170;2022-12-29T13:10:59;100312.60;;;9.77;70.52
76551;BME280;65393;53.160;18.170;2022-12-29T13:13:37;100312.48;;;9.80;70.21
76551;BME280;65393;53.160;18.170;2022-12-29T13:16:25;100317.70;;;9.83;70.03
76551;BME280;65393;53.160;18.170;2022-12-29T13:19:14;100322.80;;;9.84;69.95
76551;BME280;65393;53.160;18.170;2022-12-29T13:30:05;100332.59;;;9.83;70.08
76551;BME280;65393;53.160;18.170;2022-12-29T13:38:07;100339.51;;;9.78;70.20
76551;BME280;65393;53.160;18.170;2022-12-29T13:40:41;100335.52;;;9.76;70.32
76551;BME280;65393;53.160;18.170;2022-12-29T13:43:11;100337.70;;;9.75;70.17
76551;BME280;65393;53.160;18.170;2022-12-29T13:45:39;100334.98;;;9.72;70.00
76551;BME280;65393;53.160;18.170;2022-12-29T13:48:18;100333.29;;;9.70;70.08
76551;BME280;65393;53.160;18.170;2022-12-29T13:50:52;100330.91;;;9.68;70.15
76551;BME280;65393;53.160;18.170;2022-12-29T13:53:41;100336.61;;;9.67;70.24
76551;BME280;65393;53.160;18.170;2022-12-29T14:03:57;100343.77;;;9.60;70.52
76551;BME280;65393;53.160;18.170;2022-12-29T14:09:00;100351.61;;;9.55;70.65
76551;BME280;65393;53.160;18.170;2022-12-29T14:11:40;100348.98;;;9.54;70.52
76551;BME280;65393;53.160;18.170;2022-12-29T14:14:16;100348.11;;;9.54;70.65
76551;BME280;65393;53.160;18.170;2022-12-29T14:16:46;100347.37;;;9.50;70.69
76551;BME280;65393;53.160;18.170;2022-12-29T14:19:16;100353.16;;;9.47;70.78
76551;BME280;65393;53.160;18.170;2022-12-29T14:21:56;100357.95;;;9.47;70.81
76551;BME280;65393;53.160;18.170;2022-12-29T14:29:49;100354.86;;;9.44;70.92
76551;BME280;65393;53.160;18.170;2022-12-29T14:34:56;100363.85;;;9.41;71.23
76551;BME280;65393;53.160;18.170;2022-12-29T14:37:32;100361.85;;;9.38;71.22
76551;BME280;65393;53.160;18.170;2022-12-29T14:40:06;100357.02;;;9.35;71.31
76551;BME280;65393;53.160;18.170;2022-12-29T14:42:40;100361.89;;;9.32;71.39
76551;BME280;65393;53.160;18.170;2022-12-29T14:45:29;100358.75;;;9.31;71.46
76551;BME280;65393;53.160;18.170;2022-12-29T14:47:57;100358.95;;;9.30;71.42
76551;BME280;65393;53.160;18.170;2022-12-29T14:50:33;100356.73;;;9.28;71.50
76551;BME280;65393;53.160;18.170;2022-12-29T14:53:05;100356.73;;;9.28;71.64
76551;BME280;65393;53.160;18.170;2022-12-29T14:58:17;100357.36;;;9.26;71.69
76551;BME280;65393;53.160;18.170;2022-12-29T15:00:46;100353.79;;;9.27;71.73
76551;BME280;65393;53.160;18.170;2022-12-29T15:03:32;100353.91;;;9.28;71.74
76551;BME280;65393;53.160;18.170;2022-12-29T15:06:05;100356.88;;;9.29;71.78
76551;BME280;65393;53.160;18.170;2022-12-29T15:08:37;100364.06;;;9.31;71.74
76551;BME280;65393;53.160;18.170;2022-12-29T15:11:14;100364.05;;;9.31;71.81
76551;BME280;65393;53.160;18.170;2022-12-29T15:13:43;100360.16;;;9.31;71.90
76551;BME280;65393;53.160;18.170;2022-12-29T15:16:25;100360.63;;;9.33;71.79
76551;BME280;65393;53.160;18.170;2022-12-29T15:18:53;100359.44;;;9.36;71.77
76551;BME280;65393;53.160;18.170;2022-12-29T15:21:26;100356.81;;;9.40;71.66
76551;BME280;65393;53.160;18.170;2022-12-29T15:23:54;100357.09;;;9.42;71.70
76551;BME280;65393;53.160;18.170;2022-12-29T15:26:22;100354.76;;;9.43;71.70
76551;BME280;65393;53.160;18.170;2022-12-29T15:28:51;100353.60;;;9.45;71.64
76551;BME280;65393;53.160;18.170;2022-12-29T15:31:23;100354.59;;;9.47;71.68
76551;BME280;65393;53.160;18.170;2022-12-29T15:33:52;100351.73;;;9.47;71.45
76551;BME280;65393;53.160;18.170;2022-12-29T15:36:27;100347.93;;;9.49;71.46
76551;BME280;65393;53.160;18.170;2022-12-29T15:38:55;100348.40;;;9.51;71.49
76551;BME280;65393;53.160;18.170;2022-12-29T15:41:43;100345.57;;;9.51;71.38
76551;BME280;65393;53.160;18.170;2022-12-29T15:44:38;100337.26;;;9.50;71.42